Kapfenberg Airport LOGK

Flugplatz Daten

Name: Kapfenberg Airport

Ident: LOGK

Lat: 47,45830154

Long: 15,32999992

Platzhöhe: 1690 ft

IataCode:

City: Kapfenberg

Metar

2021/08/26 15:20
LOGK 261520Z AUTO 08004KT 6000 RA OVC042 13/12 Q1012

Taf

Gewünschte Webcam nicht vorhanden? Dann fügen Sie eine hinzu. Sie wird dann so schnell wie möglich freigeschaltet
Url: Title: